Time;durP1;ratioP1;P1;durP2;ratioP2;P2;SDS_P1;SDS_P2;PMS_P1;PMS_P2;Temp;Humidity;BMP_temperature;BMP_pressure;BME280_temperature;BME280_humidity;BME280_pressure;Samples;Min_cycle;Max_cycle;Signal;HPM_P1;HPM_P2
2024/01/17 00:01:43;;;;;;;10.37;6.27;;;0.40;99.90;;;;;;4996295;28;20441;-64
2024/01/17 00:04:10;;;;;;;15.03;6.50;;;0.40;99.90;;;;;;4996341;28;20779;-64
2024/01/17 00:06:37;;;;;;;12.10;6.53;;;0.30;99.90;;;;;;4996218;28;20442;-65
2024/01/17 00:09:05;;;;;;;11.10;6.13;;;0.30;99.90;;;;;;4996229;28;20490;-64
2024/01/17 00:11:33;;;;;;;9.17;5.77;;;0.30;99.90;;;;;;4995102;28;20957;-64
2024/01/17 00:14:00;;;;;;;9.13;6.23;;;0.20;99.90;;;;;;4997035;28;21053;-64
2024/01/17 00:16:27;;;;;;;11.70;5.40;;;0.20;99.90;;;;;;4999521;28;20543;-65
2024/01/17 00:18:55;;;;;;;8.50;5.30;;;0.20;99.90;;;;;;4999942;28;20826;-64
2024/01/17 00:21:22;;;;;;;8.13;5.97;;;0.20;99.90;;;;;;4998863;28;20463;-65
2024/01/17 00:23:49;;;;;;;24.27;9.87;;;0.20;99.90;;;;;;4997693;28;20481;-65
2024/01/17 00:26:16;;;;;;;29.30;13.20;;;0.10;99.90;;;;;;4995954;28;20480;-63
2024/01/17 00:28:44;;;;;;;11.10;6.90;;;0.10;99.90;;;;;;4995789;28;20441;-64
2024/01/17 00:31:11;;;;;;;11.70;5.77;;;0.10;99.90;;;;;;4999349;28;20445;-63
2024/01/17 00:33:38;;;;;;;13.97;6.10;;;0.10;99.90;;;;;;4994671;28;20548;-64
2024/01/17 00:36:05;;;;;;;7.73;4.53;;;0.10;99.90;;;;;;4994250;28;20503;-65
2024/01/17 00:38:32;;;;;;;13.93;6.23;;;0.10;99.90;;;;;;4994398;28;20480;-65
2024/01/17 00:40:59;;;;;;;8.77;6.50;;;0.10;99.90;;;;;;4994364;28;20471;-65
2024/01/17 00:43:26;;;;;;;10.83;5.90;;;0.00;99.90;;;;;;4994706;28;20552;-64
2024/01/17 00:45:54;;;;;;;10.17;6.50;;;0.00;99.90;;;;;;4994914;28;20941;-63
2024/01/17 00:48:21;;;;;;;11.00;5.87;;;0.00;99.90;;;;;;4995166;28;20548;-64
2024/01/17 00:50:48;;;;;;;12.50;5.50;;;0.00;99.90;;;;;;4995547;28;20520;-64
2024/01/17 00:53:15;;;;;;;8.87;5.70;;;0.00;99.90;;;;;;4995420;28;20509;-64
2024/01/17 00:55:42;;;;;;;8.37;5.30;;;-0.10;99.90;;;;;;4996687;28;20489;-65
2024/01/17 00:58:08;;;;;;;12.87;6.30;;;-0.10;99.90;;;;;;5003346;28;20992;-64
2024/01/17 01:00:35;;;;;;;7.20;5.10;;;-0.20;99.90;;;;;;4998702;28;20466;-64
2024/01/17 01:03:04;;;;;;;16.13;5.47;;;-0.20;99.90;;;;;;5005191;28;20510;-63
2024/01/17 01:05:31;;;;;;;13.33;7.20;;;-0.20;99.90;;;;;;5003509;28;20844;-64
2024/01/17 01:07:58;;;;;;;10.40;5.57;;;-0.20;99.90;;;;;;5003323;28;20472;-64
2024/01/17 01:10:28;;;;;;;10.23;5.47;;;-0.20;99.90;;;;;;4995320;28;20580;-64
2024/01/17 01:12:55;;;;;;;16.90;8.40;;;-0.30;99.90;;;;;;4994944;28;20554;-64
2024/01/17 01:15:21;;;;;;;9.20;5.93;;;-0.30;99.90;;;;;;4995253;28;20488;-64
2024/01/17 01:17:48;;;;;;;7.93;4.83;;;-0.40;99.90;;;;;;4994246;28;21020;-63
2024/01/17 01:20:17;;;;;;;10.13;5.13;;;-0.30;99.90;;;;;;4995327;28;20838;-63
2024/01/17 01:22:44;;;;;;;8.83;5.60;;;-0.40;99.90;;;;;;4996511;28;20494;-65
2024/01/17 01:25:11;;;;;;;10.20;5.70;;;-0.40;99.90;;;;;;4999122;28;20477;-63
2024/01/17 01:27:37;;;;;;;10.27;6.07;;;-0.40;99.90;;;;;;4999054;28;20490;-64
2024/01/17 01:30:06;;;;;;;11.47;6.10;;;-0.50;99.90;;;;;;4998799;28;20529;-64
2024/01/17 01:32:32;;;;;;;9.27;6.20;;;-0.40;99.90;;;;;;4998741;28;20805;-66
2024/01/17 01:34:59;;;;;;;11.40;6.20;;;-0.50;99.90;;;;;;4998849;28;20976;-64
2024/01/17 01:37:27;;;;;;;8.27;5.10;;;-0.50;99.90;;;;;;4998045;28;20536;-63
2024/01/17 01:39:54;;;;;;;10.40;5.60;;;-0.50;99.90;;;;;;4998549;28;20940;-64
2024/01/17 01:42:21;;;;;;;12.13;5.70;;;-0.50;99.90;;;;;;4998639;28;20553;-66
2024/01/17 01:44:48;;;;;;;12.43;6.53;;;-0.60;99.90;;;;;;4998806;28;20435;-63
2024/01/17 01:47:17;;;;;;;12.63;5.60;;;-0.50;99.90;;;;;;4998953;28;20983;-64
2024/01/17 01:49:44;;;;;;;8.83;5.47;;;-0.60;99.90;;;;;;4998704;28;21057;-63
2024/01/17 01:52:11;;;;;;;11.77;5.53;;;-0.60;99.90;;;;;;4998965;28;20974;-63
2024/01/17 01:54:39;;;;;;;9.57;5.70;;;-0.60;99.90;;;;;;4998708;28;20507;-63
2024/01/17 01:57:08;;;;;;;7.80;5.77;;;-0.60;99.90;;;;;;4998639;28;20535;-64
2024/01/17 01:59:35;;;;;;;13.70;6.03;;;-0.70;99.90;;;;;;4998970;28;20528;-65
2024/01/17 02:02:04;;;;;;;10.03;6.20;;;-0.60;99.90;;;;;;4998567;28;20486;-65
2024/01/17 02:04:33;;;;;;;11.80;7.20;;;-0.60;99.90;;;;;;4998652;28;20550;-65
2024/01/17 02:07:02;;;;;;;12.47;6.73;;;-0.60;99.90;;;;;;4998192;28;20486;-64
2024/01/17 02:09:30;;;;;;;14.57;6.17;;;-0.60;99.90;;;;;;4998604;28;20484;-63
2024/01/17 02:11:58;;;;;;;9.53;6.10;;;-0.70;99.90;;;;;;4998324;28;20454;-64
2024/01/17 02:14:25;;;;;;;12.13;5.70;;;-0.70;99.90;;;;;;4998420;28;21016;-64
2024/01/17 02:16:54;;;;;;;9.57;5.73;;;-0.70;99.90;;;;;;4998343;28;20486;-64
2024/01/17 02:19:22;;;;;;;8.17;4.67;;;-0.70;99.90;;;;;;4998032;28;20527;-64
2024/01/17 02:21:52;;;;;;;13.03;6.07;;;-0.80;99.90;;;;;;4998039;28;20449;-64
2024/01/17 02:24:22;;;;;;;12.80;6.00;;;-0.80;99.90;;;;;;4998105;28;20994;-63
2024/01/17 02:26:49;;;;;;;8.57;6.10;;;-0.80;99.90;;;;;;4998180;28;20433;-64
2024/01/17 02:29:17;;;;;;;9.13;5.57;;;-0.80;99.90;;;;;;5015317;28;20443;-64
2024/01/17 02:31:45;;;;;;;13.03;6.43;;;-0.80;99.90;;;;;;5018756;28;20492;-65
2024/01/17 02:34:13;;;;;;;11.73;7.13;;;-0.90;99.90;;;;;;5017186;28;20441;-64
2024/01/17 02:36:40;;;;;;;10.30;6.33;;;-0.90;99.90;;;;;;5018590;28;20458;-64
2024/01/17 02:39:23;;;;;;;7.33;5.00;;;-0.90;99.90;;;;;;5018803;28;20449;-64
2024/01/17 02:41:53;;;;;;;6.33;4.57;;;-0.90;99.90;;;;;;5018600;28;20455;-63
2024/01/17 02:44:20;;;;;;;12.60;5.57;;;-0.90;99.90;;;;;;5019453;28;20466;-63
2024/01/17 02:46:47;;;;;;;15.47;6.27;;;-0.90;99.90;;;;;;5019998;28;20440;-63
2024/01/17 02:49:19;;;;;;;8.93;5.50;;;-0.90;99.90;;;;;;5019206;28;20473;-63
2024/01/17 02:51:48;;;;;;;12.33;7.30;;;-0.90;99.90;;;;;;5018754;28;20437;-63
2024/01/17 02:54:14;;;;;;;8.80;5.20;;;-0.90;99.90;;;;;;5018423;28;20453;-63
2024/01/17 02:56:41;;;;;;;7.27;4.93;;;-0.90;99.90;;;;;;5017613;28;20511;-64
2024/01/17 02:59:09;;;;;;;9.30;6.00;;;-0.90;99.90;;;;;;5010530;28;20579;-62
2024/01/17 03:01:36;;;;;;;17.83;6.30;;;-0.90;99.90;;;;;;5006027;28;20547;-64
2024/01/17 03:04:03;;;;;;;8.30;5.83;;;-0.90;99.90;;;;;;5001946;28;20532;-64
2024/01/17 03:06:30;;;;;;;8.10;6.47;;;-0.90;99.90;;;;;;5001733;28;20556;-64
2024/01/17 03:08:57;;;;;;;7.60;4.90;;;-0.90;99.90;;;;;;4999664;28;20473;-63
2024/01/17 03:11:26;;;;;;;11.40;7.17;;;-0.90;99.90;;;;;;4999744;28;20507;-64
2024/01/17 03:13:53;;;;;;;9.10;5.50;;;-0.90;99.90;;;;;;4998167;28;20473;-64
2024/01/17 03:16:21;;;;;;;10.10;5.67;;;-0.90;99.90;;;;;;4997410;28;20943;-63
2024/01/17 03:18:48;;;;;;;7.83;5.17;;;-0.90;99.90;;;;;;4997436;28;20551;-63
2024/01/17 03:21:15;;;;;;;12.60;6.67;;;-0.90;99.90;;;;;;4997147;28;20540;-63
2024/01/17 03:23:42;;;;;;;11.77;6.07;;;-0.90;99.90;;;;;;4996876;28;20464;-63
2024/01/17 03:26:10;;;;;;;6.07;4.63;;;-0.80;99.90;;;;;;5007885;28;20477;-64
2024/01/17 03:28:37;;;;;;;9.73;6.37;;;-0.80;99.90;;;;;;5005052;28;20431;-64
2024/01/17 03:31:04;;;;;;;6.93;4.83;;;-0.80;99.90;;;;;;5000730;28;20520;-63
2024/01/17 03:33:33;;;;;;;8.50;6.37;;;-0.90;99.90;;;;;;5001315;28;20521;-64
2024/01/17 03:36:00;;;;;;;7.37;4.90;;;-0.90;99.90;;;;;;4999490;28;20531;-65
2024/01/17 03:38:27;;;;;;;10.10;6.53;;;-0.90;99.90;;;;;;4998832;28;20470;-64
2024/01/17 03:40:55;;;;;;;13.67;6.00;;;-0.90;99.90;;;;;;4998221;28;20462;-64
2024/01/17 03:43:22;;;;;;;10.70;5.33;;;-0.90;99.90;;;;;;4996681;28;20926;-64
2024/01/17 03:45:49;;;;;;;14.20;5.30;;;-0.90;99.90;;;;;;4996598;28;20512;-64
2024/01/17 03:48:16;;;;;;;13.27;6.40;;;-0.90;99.90;;;;;;4996490;28;20439;-64
2024/01/17 03:50:44;;;;;;;13.23;5.50;;;-0.80;99.90;;;;;;4996467;28;20584;-64
2024/01/17 03:53:11;;;;;;;7.67;5.63;;;-0.90;99.90;;;;;;4996350;28;20455;-63
2024/01/17 03:55:38;;;;;;;14.20;6.63;;;-0.90;99.90;;;;;;4995962;28;20464;-64
2024/01/17 03:58:05;;;;;;;9.83;5.60;;;-0.90;99.90;;;;;;4996172;28;20508;-64
2024/01/17 04:00:32;;;;;;;15.50;6.13;;;-0.90;99.90;;;;;;4996320;28;20970;-63
2024/01/17 04:02:58;;;;;;;9.37;5.10;;;-0.90;99.90;;;;;;4996667;28;20473;-63
2024/01/17 04:05:25;;;;;;;11.07;5.63;;;-0.90;99.90;;;;;;4996256;28;20540;-64
2024/01/17 04:07:53;;;;;;;9.97;5.87;;;-0.90;99.90;;;;;;4996354;28;20458;-65
2024/01/17 04:10:20;;;;;;;8.13;5.80;;;-1.00;99.90;;;;;;4995782;28;20524;-63
2024/01/17 04:12:48;;;;;;;9.80;5.50;;;-1.00;99.90;;;;;;4995879;28;20488;-63
2024/01/17 04:15:15;;;;;;;13.63;6.93;;;-1.00;99.90;;;;;;4996030;28;20473;-64
2024/01/17 04:17:42;;;;;;;10.30;6.03;;;-1.00;99.90;;;;;;4996180;28;20444;-63
2024/01/17 04:20:09;;;;;;;10.97;5.90;;;-1.10;99.90;;;;;;4996063;28;20515;-63
2024/01/17 04:22:36;;;;;;;8.03;5.40;;;-1.10;99.90;;;;;;4995695;28;20536;-63
2024/01/17 04:25:05;;;;;;;13.30;7.50;;;-1.10;99.90;;;;;;4995879;28;20448;-64
2024/01/17 04:27:32;;;;;;;14.43;7.60;;;-1.10;99.90;;;;;;4995514;28;20504;-64
2024/01/17 04:29:59;;;;;;;7.30;5.13;;;-1.10;99.90;;;;;;4995558;28;20532;-64
2024/01/17 04:32:28;;;;;;;9.20;5.17;;;-1.10;99.90;;;;;;4995833;28;20848;-63
2024/01/17 04:34:55;;;;;;;7.27;6.00;;;-1.10;99.90;;;;;;4995524;28;20453;-65
2024/01/17 04:37:22;;;;;;;12.90;6.27;;;-1.10;99.90;;;;;;4995736;28;20465;-64
2024/01/17 04:39:49;;;;;;;9.23;6.37;;;-1.20;99.90;;;;;;4995598;28;20568;-64
2024/01/17 04:42:17;;;;;;;11.53;5.83;;;-1.30;99.90;;;;;;4995416;28;20479;-63
2024/01/17 04:44:45;;;;;;;11.83;5.97;;;-1.30;99.90;;;;;;4995274;28;21052;-64
2024/01/17 04:47:13;;;;;;;11.17;6.17;;;-1.40;99.90;;;;;;4995226;28;20913;-63
2024/01/17 04:49:43;;;;;;;11.87;5.13;;;-1.50;99.90;;;;;;4995201;28;20451;-62
2024/01/17 04:52:15;;;;;;;11.10;6.00;;;-1.50;99.90;;;;;;4997086;28;20493;-64
2024/01/17 04:54:42;;;;;;;10.03;5.17;;;-1.60;99.90;;;;;;4997875;28;20495;-64
2024/01/17 04:57:11;;;;;;;13.37;6.20;;;-1.50;99.90;;;;;;4997138;28;20487;-64
2024/01/17 04:59:39;;;;;;;7.20;5.43;;;-1.60;99.90;;;;;;5001359;28;20517;-64
2024/01/17 05:02:06;;;;;;;12.63;6.10;;;-1.50;99.90;;;;;;5001903;28;20468;-64
2024/01/17 05:04:33;;;;;;;7.90;5.00;;;-1.60;99.90;;;;;;5002083;28;21000;-65
2024/01/17 05:07:00;;;;;;;10.93;6.00;;;-1.70;99.90;;;;;;5001826;28;20448;-66
2024/01/17 05:09:28;;;;;;;10.37;5.37;;;-1.70;99.90;;;;;;5001690;28;20487;-65
2024/01/17 05:11:57;;;;;;;8.10;5.40;;;-1.70;99.90;;;;;;5001392;28;20484;-64
2024/01/17 05:14:23;;;;;;;10.33;5.60;;;-1.70;99.90;;;;;;5001148;28;20540;-65
2024/01/17 05:16:52;;;;;;;9.47;5.80;;;-1.70;99.90;;;;;;5001680;28;20566;-65
2024/01/17 05:19:19;;;;;;;8.73;5.73;;;-1.70;99.90;;;;;;5001730;28;20491;-65
2024/01/17 05:21:45;;;;;;;9.67;6.00;;;-1.70;99.90;;;;;;5001295;28;20441;-65
2024/01/17 05:24:12;;;;;;;7.47;5.50;;;-1.70;99.90;;;;;;5000995;28;20511;-65
2024/01/17 05:26:39;;;;;;;13.30;6.33;;;-1.80;99.90;;;;;;5001681;28;20457;-65
2024/01/17 05:29:06;;;;;;;10.20;6.27;;;-1.70;99.90;;;;;;5000208;28;20566;-65
2024/01/17 05:31:33;;;;;;;14.37;6.97;;;-1.70;99.90;;;;;;5000173;28;20560;-64
2024/01/17 05:34:01;;;;;;;14.57;7.23;;;-1.80;99.90;;;;;;4999716;28;21039;-64
2024/01/17 05:36:28;;;;;;;11.63;5.90;;;-1.80;99.90;;;;;;5001326;28;20471;-64
2024/01/17 05:38:55;;;;;;;16.50;5.03;;;-1.80;99.90;;;;;;5001898;28;20444;-65
2024/01/17 05:41:25;;;;;;;12.20;6.20;;;-1.80;99.90;;;;;;5002116;28;20476;-65
2024/01/17 05:43:53;;;;;;;9.97;6.77;;;-1.90;99.90;;;;;;5001808;28;20528;-64
2024/01/17 05:46:20;;;;;;;9.40;5.73;;;-1.90;99.90;;;;;;5001753;28;20469;-65
2024/01/17 05:48:47;;;;;;;9.17;6.60;;;-1.90;99.90;;;;;;5001918;28;20476;-64
2024/01/17 05:51:15;;;;;;;9.10;6.47;;;-2.00;99.90;;;;;;5001944;28;20483;-65
2024/01/17 05:53:42;;;;;;;14.17;6.37;;;-2.00;99.90;;;;;;5002587;28;20476;-64
2024/01/17 05:56:11;;;;;;;16.27;5.83;;;-2.00;99.90;;;;;;5002113;28;20508;-65
2024/01/17 05:58:40;;;;;;;8.80;6.67;;;-1.90;99.90;;;;;;5001710;28;20504;-64
2024/01/17 06:01:07;;;;;;;9.00;5.53;;;-1.90;99.90;;;;;;5001075;28;21024;-64
2024/01/17 06:03:34;;;;;;;12.40;6.90;;;-1.90;99.90;;;;;;5001266;28;20474;-65
2024/01/17 06:06:05;;;;;;;8.57;5.53;;;-1.80;99.90;;;;;;5001393;28;20525;-64
2024/01/17 06:08:33;;;;;;;13.80;8.17;;;-1.90;99.90;;;;;;5001927;28;20441;-64
2024/01/17 06:11:01;;;;;;;9.80;6.30;;;-1.90;99.90;;;;;;5004307;28;20495;-65
2024/01/17 06:13:34;;;;;;;8.87;6.50;;;-1.90;99.90;;;;;;5004562;28;20464;-65
2024/01/17 06:16:00;;;;;;;21.43;8.20;;;-1.90;99.90;;;;;;5004553;28;20496;-65
2024/01/17 06:18:27;;;;;;;10.37;5.67;;;-1.90;99.90;;;;;;5004766;28;20524;-65
2024/01/17 06:20:54;;;;;;;12.63;7.67;;;-2.00;99.90;;;;;;5004906;28;20499;-65
2024/01/17 06:23:21;;;;;;;12.83;6.47;;;-2.00;99.90;;;;;;5005356;28;20434;-65
2024/01/17 06:25:49;;;;;;;10.77;6.20;;;-2.00;99.90;;;;;;5003992;28;20499;-65
2024/01/17 06:28:18;;;;;;;11.97;8.40;;;-2.00;99.90;;;;;;5004631;28;20502;-65
2024/01/17 06:30:46;;;;;;;14.10;7.30;;;-1.90;99.90;;;;;;5005010;28;20483;-65
2024/01/17 06:33:13;;;;;;;13.27;7.67;;;-2.00;99.90;;;;;;5004407;28;20555;-66
2024/01/17 06:35:40;;;;;;;14.30;8.73;;;-2.00;99.90;;;;;;5003979;28;20491;-64
2024/01/17 06:38:07;;;;;;;13.97;7.57;;;-2.00;99.90;;;;;;5005524;28;20486;-65
2024/01/17 06:40:34;;;;;;;11.87;7.93;;;-2.00;99.90;;;;;;5005280;28;20477;-64
2024/01/17 06:43:02;;;;;;;19.77;8.63;;;-2.00;99.90;;;;;;5004551;28;20511;-65
2024/01/17 06:45:29;;;;;;;31.20;8.90;;;-2.00;99.90;;;;;;5005360;28;20476;-64
2024/01/17 06:47:58;;;;;;;12.77;7.47;;;-2.10;99.90;;;;;;5004737;28;20946;-65
2024/01/17 06:50:25;;;;;;;16.87;8.60;;;-2.10;99.90;;;;;;5005154;28;20459;-64
2024/01/17 06:52:52;;;;;;;10.13;6.40;;;-2.10;99.90;;;;;;5005185;28;20460;-65
2024/01/17 06:55:22;;;;;;;8.90;6.10;;;-2.10;99.90;;;;;;5005142;28;20504;-64
2024/01/17 06:57:49;;;;;;;19.20;7.57;;;-2.10;99.90;;;;;;5004955;28;20478;-65
2024/01/17 07:00:18;;;;;;;12.23;5.50;;;-2.10;99.90;;;;;;5003770;28;20522;-65
2024/01/17 07:02:47;;;;;;;10.03;6.50;;;-2.10;99.90;;;;;;5004966;28;20463;-65
2024/01/17 07:05:14;;;;;;;11.90;6.97;;;-2.10;99.90;;;;;;5004002;28;20959;-63
2024/01/17 07:07:41;;;;;;;10.77;7.20;;;-2.10;99.90;;;;;;5004725;28;20450;-64
2024/01/17 07:10:09;;;;;;;11.37;6.40;;;-2.10;99.90;;;;;;5004699;28;20487;-65
2024/01/17 07:12:41;;;;;;;11.30;5.67;;;-2.10;99.90;;;;;;5004193;28;20477;-65
2024/01/17 07:15:09;;;;;;;8.30;5.10;;;-2.10;99.90;;;;;;5003989;28;20444;-65
2024/01/17 07:17:37;;;;;;;14.33;6.40;;;-2.00;99.90;;;;;;5003876;28;20496;-65
2024/01/17 07:20:05;;;;;;;13.90;5.90;;;-2.00;99.90;;;;;;5002721;28;20521;-65
2024/01/17 07:22:32;;;;;;;14.67;6.70;;;-2.00;99.90;;;;;;5003941;28;20503;-64
2024/01/17 07:24:59;;;;;;;10.53;5.50;;;-2.00;99.90;;;;;;5011346;28;20519;-65
2024/01/17 07:27:29;;;;;;;8.80;5.33;;;-1.90;99.90;;;;;;5022851;28;20487;-65
2024/01/17 07:29:56;;;;;;;10.60;5.00;;;-1.90;99.90;;;;;;5024146;28;20916;-65
2024/01/17 07:32:23;;;;;;;12.57;5.03;;;-2.00;99.90;;;;;;5022003;28;20478;-65
2024/01/17 07:34:51;;;;;;;14.70;5.40;;;-2.00;99.90;;;;;;5024510;28;20460;-65
2024/01/17 07:37:19;;;;;;;10.00;4.77;;;-2.10;99.90;;;;;;5019697;28;20463;-65
2024/01/17 07:39:46;;;;;;;11.70;5.60;;;-2.10;99.90;;;;;;5024340;28;20487;-64
2024/01/17 07:42:14;;;;;;;10.87;6.40;;;-2.10;99.90;;;;;;5019467;28;20446;-64
2024/01/17 07:44:41;;;;;;;8.60;5.67;;;-2.10;99.90;;;;;;5005158;28;20953;-64
2024/01/17 07:47:08;;;;;;;9.73;6.63;;;-2.10;99.90;;;;;;5010763;28;20443;-64
2024/01/17 07:49:38;;;;;;;9.23;6.30;;;-2.10;99.90;;;;;;5023330;28;20948;-64
2024/01/17 07:52:07;;;;;;;12.07;6.97;;;-2.00;99.90;;;;;;5022666;28;20472;-65
2024/01/17 07:54:34;;;;;;;9.10;6.33;;;-2.00;99.90;;;;;;5016128;28;20551;-64
2024/01/17 07:57:01;;;;;;;16.10;5.33;;;-2.00;99.90;;;;;;5023066;28;20521;-65
2024/01/17 07:59:28;;;;;;;9.00;5.53;;;-2.00;99.90;;;;;;5022942;28;20567;-65
2024/01/17 08:01:57;;;;;;;20.20;9.90;;;-2.00;99.90;;;;;;5023178;28;20444;-65
2024/01/17 08:04:24;;;;;;;20.50;6.90;;;-1.90;99.90;;;;;;5022673;28;20514;-64
2024/01/17 08:06:52;;;;;;;10.60;5.90;;;-1.90;99.90;;;;;;5017068;28;20467;-64
2024/01/17 08:09:21;;;;;;;9.87;6.63;;;-1.90;99.90;;;;;;5031492;28;20475;-65
2024/01/17 08:11:48;;;;;;;13.40;5.70;;;-1.80;99.90;;;;;;5033003;28;20536;-63
2024/01/17 08:14:15;;;;;;;11.33;6.10;;;-1.80;99.90;;;;;;5033215;28;20458;-65
2024/01/17 08:16:44;;;;;;;8.33;4.83;;;-1.80;99.90;;;;;;5032691;28;20470;-65
2024/01/17 08:19:11;;;;;;;9.67;6.13;;;-1.70;99.90;;;;;;5032547;28;20474;-62
2024/01/17 08:21:38;;;;;;;21.77;6.60;;;-1.80;99.90;;;;;;5031904;28;20464;-62
2024/01/17 08:24:05;;;;;;;10.30;5.27;;;-1.70;99.90;;;;;;5031902;28;20436;-62
2024/01/17 08:26:34;;;;;;;7.87;4.97;;;-1.70;99.90;;;;;;5030461;28;20483;-62
2024/01/17 08:29:02;;;;;;;10.70;4.70;;;-1.70;99.90;;;;;;5030791;28;20455;-64
2024/01/17 08:31:29;;;;;;;10.33;6.30;;;-1.60;99.90;;;;;;5031147;28;20513;-64
2024/01/17 08:33:56;;;;;;;13.10;6.23;;;-1.60;99.90;;;;;;5029970;28;20471;-64
2024/01/17 08:36:23;;;;;;;11.00;5.10;;;-1.50;99.90;;;;;;5031118;28;20450;-64
2024/01/17 08:38:50;;;;;;;10.50;5.37;;;-1.40;99.90;;;;;;5031839;28;21055;-64
2024/01/17 08:41:21;;;;;;;10.67;6.10;;;-1.40;99.90;;;;;;5030239;28;20444;-64
2024/01/17 08:43:49;;;;;;;11.60;6.53;;;-1.40;99.90;;;;;;5030330;28;20479;-65
2024/01/17 08:46:16;;;;;;;9.97;6.00;;;-1.40;99.90;;;;;;5030903;28;20546;-64
2024/01/17 08:48:43;;;;;;;8.37;5.00;;;-1.40;99.90;;;;;;5031354;28;20492;-64
2024/01/17 08:51:11;;;;;;;10.70;5.87;;;-1.40;99.90;;;;;;5031144;28;20982;-63
2024/01/17 08:53:38;;;;;;;15.97;7.07;;;-1.40;99.90;;;;;;5031182;28;20452;-64
2024/01/17 08:56:05;;;;;;;14.83;6.57;;;-1.40;99.90;;;;;;5031228;28;20464;-64
2024/01/17 08:58:32;;;;;;;7.77;5.30;;;-1.40;99.90;;;;;;5031632;28;20534;-63
2024/01/17 09:01:02;;;;;;;22.23;7.30;;;-1.40;99.90;;;;;;5031914;28;20483;-67
2024/01/17 09:03:32;;;;;;;10.93;6.40;;;-1.40;99.90;;;;;;5031235;28;20463;-67
2024/01/17 09:05:59;;;;;;;15.13;7.30;;;-1.40;99.90;;;;;;5029198;28;20476;-67
2024/01/17 09:08:25;;;;;;;18.80;7.27;;;-1.30;99.90;;;;;;5027903;28;20479;-66
2024/01/17 09:10:52;;;;;;;13.03;6.23;;;-1.30;99.90;;;;;;5027855;28;20487;-69
2024/01/17 09:13:19;;;;;;;14.47;8.90;;;-1.20;99.90;;;;;;5028103;28;20468;-68
2024/01/17 09:15:46;;;;;;;8.70;4.30;;;-1.10;99.90;;;;;;5027869;28;20452;-65
2024/01/17 09:18:17;;;;;;;12.47;6.97;;;-0.60;99.90;;;;;;5025375;28;20451;-67
2024/01/17 09:20:44;;;;;;;12.47;7.10;;;0.40;99.90;;;;;;5024661;28;20463;-67
2024/01/17 09:23:11;;;;;;;16.40;8.20;;;0.30;99.90;;;;;;5025466;28;20464;-67
2024/01/17 09:25:38;;;;;;;10.77;6.63;;;0.10;99.90;;;;;;5025925;28;20462;-65
2024/01/17 09:28:09;;;;;;;13.07;6.37;;;0.00;99.90;;;;;;5026135;28;20505;-66
2024/01/17 09:30:36;;;;;;;17.73;8.17;;;-0.20;99.90;;;;;;5027120;28;20434;-67
2024/01/17 09:33:03;;;;;;;9.77;5.10;;;-0.20;99.90;;;;;;5027485;28;20553;-66
2024/01/17 09:35:34;;;;;;;12.10;6.60;;;-0.30;99.90;;;;;;5025490;28;20915;-66
2024/01/17 09:38:06;;;;;;;9.43;7.20;;;1.20;99.90;;;;;;5026305;28;20432;-67
2024/01/17 09:40:35;;;;;;;12.10;5.37;;;0.80;99.90;;;;;;5035828;28;20448;-68
2024/01/17 09:43:04;;;;;;;17.73;6.70;;;0.70;99.90;;;;;;5037003;28;20445;-67
2024/01/17 09:45:33;;;;;;;13.60;7.00;;;0.60;99.90;;;;;;5041168;28;20476;-69
2024/01/17 09:48:03;;;;;;;12.03;6.60;;;0.60;99.90;;;;;;5040968;28;20457;-68
2024/01/17 09:50:31;;;;;;;8.80;6.60;;;0.60;99.90;;;;;;5040025;28;20467;-69
2024/01/17 09:52:58;;;;;;;11.93;6.70;;;0.60;99.90;;;;;;5040529;28;20488;-67
2024/01/17 09:55:27;;;;;;;12.60;6.13;;;0.60;99.90;;;;;;5039536;28;20451;-67
2024/01/17 09:57:59;;;;;;;8.80;5.93;;;0.40;99.90;;;;;;5039869;28;20451;-68
2024/01/17 10:00:27;;;;;;;8.90;5.60;;;0.30;99.90;;;;;;5040800;28;20408;-67
2024/01/17 10:03:06;;;;;;;12.37;6.53;;;0.30;99.90;;;;;;5040194;28;20507;-67
2024/01/17 10:05:38;;;;;;;12.23;7.50;;;0.30;99.90;;;;;;5040294;28;20432;-68
2024/01/17 10:08:08;;;;;;;8.73;5.10;;;0.30;99.90;;;;;;5039595;28;20441;-67
2024/01/17 10:10:38;;;;;;;8.47;5.27;;;0.30;99.90;;;;;;5039972;28;20930;-66
2024/01/17 10:13:07;;;;;;;10.27;5.50;;;0.20;99.90;;;;;;5040328;28;20514;-67
2024/01/17 10:15:42;;;;;;;14.83;6.30;;;0.20;99.90;;;;;;5040025;28;20479;-66
2024/01/17 10:18:12;;;;;;;11.40;6.00;;;0.20;99.90;;;;;;5040083;28;20454;-67
2024/01/17 10:20:49;;;;;;;8.83;6.60;;;0.30;99.90;;;;;;5040054;28;20496;-67
2024/01/17 10:23:16;;;;;;;14.03;5.10;;;0.40;99.90;;;;;;5040221;28;20455;-68
2024/01/17 10:25:47;;;;;;;7.87;5.17;;;0.50;99.90;;;;;;5040158;28;20461;-66
2024/01/17 10:28:19;;;;;;;10.73;4.33;;;0.60;99.90;;;;;;5040373;28;20431;-67
2024/01/17 10:30:46;;;;;;;12.37;5.70;;;0.80;99.90;;;;;;5040588;28;20442;-67
2024/01/17 10:33:16;;;;;;;10.50;5.43;;;0.90;99.90;;;;;;5040446;28;20467;-67
2024/01/17 10:35:43;;;;;;;11.07;5.67;;;1.10;99.90;;;;;;5040433;28;20473;-68
2024/01/17 10:38:12;;;;;;;16.23;6.60;;;1.30;99.90;;;;;;5040369;28;20452;-67
2024/01/17 10:40:44;;;;;;;10.53;7.00;;;1.40;99.90;;;;;;5040631;28;20428;-67
2024/01/17 10:43:16;;;;;;;13.07;6.27;;;1.40;99.90;;;;;;5040622;28;20435;-66
2024/01/17 10:45:44;;;;;;;8.10;5.30;;;1.50;99.90;;;;;;5040635;28;20457;-67
2024/01/17 10:48:15;;;;;;;8.50;6.40;;;1.70;99.90;;;;;;5040300;28;20456;-68
2024/01/17 10:50:44;;;;;;;15.73;6.80;;;1.70;99.90;;;;;;5040494;28;20446;-67
2024/01/17 10:53:18;;;;;;;12.13;6.07;;;1.70;99.90;;;;;;5040894;28;20465;-67
2024/01/17 10:55:49;;;;;;;12.87;6.20;;;1.60;99.90;;;;;;5039762;28;20456;-67
2024/01/17 10:58:18;;;;;;;10.30;5.87;;;1.60;99.90;;;;;;5040639;28;20473;-67
2024/01/17 11:00:49;;;;;;;9.67;6.07;;;1.70;99.90;;;;;;5040724;28;20438;-67
2024/01/17 11:03:21;;;;;;;12.30;6.30;;;1.70;99.90;;;;;;5040277;28;20523;-67
2024/01/17 11:05:52;;;;;;;9.43;7.00;;;1.70;99.90;;;;;;5040464;28;20435;-66
2024/01/17 11:08:22;;;;;;;17.60;9.50;;;1.80;99.90;;;;;;5040111;28;20485;-67
2024/01/17 11:10:49;;;;;;;10.47;6.60;;;1.70;99.90;;;;;;5039982;28;20471;-68
2024/01/17 11:13:17;;;;;;;11.50;5.80;;;1.70;99.90;;;;;;5039409;28;20481;-66
2024/01/17 11:15:45;;;;;;;8.47;5.57;;;1.80;99.90;;;;;;5039060;28;20497;-67
2024/01/17 11:18:14;;;;;;;9.00;5.73;;;1.80;99.90;;;;;;5039119;28;20464;-67
2024/01/17 11:20:48;;;;;;;8.97;6.67;;;1.70;99.90;;;;;;5038602;28;20460;-68
2024/01/17 11:23:38;;;;;;;15.73;7.57;;;1.60;99.90;;;;;;5038408;28;20542;-69
2024/01/17 11:26:14;;;;;;;10.07;6.17;;;1.60;99.90;;;;;;5038815;28;20428;-67
2024/01/17 11:28:48;;;;;;;6.57;5.07;;;1.60;99.90;;;;;;5038639;28;20465;-67
2024/01/17 11:31:28;;;;;;;9.20;5.20;;;1.60;99.90;;;;;;5038433;28;20438;-68
2024/01/17 11:34:01;;;;;;;11.60;6.60;;;1.70;99.90;;;;;;5038644;28;20492;-66
2024/01/17 11:36:41;;;;;;;12.40;6.73;;;1.70;99.90;;;;;;5038594;28;20409;-67
2024/01/17 11:39:12;;;;;;;10.17;5.57;;;1.60;99.90;;;;;;5038357;28;20532;-67
2024/01/17 11:41:40;;;;;;;8.23;5.80;;;1.50;99.90;;;;;;5038730;28;20432;-68
2024/01/17 11:44:11;;;;;;;15.07;6.10;;;1.50;99.90;;;;;;5038573;28;20450;-68
2024/01/17 11:46:38;;;;;;;7.87;5.67;;;1.50;99.90;;;;;;5038204;28;20472;-69
2024/01/17 11:49:05;;;;;;;10.70;6.07;;;1.60;99.90;;;;;;5038376;28;20444;-68
2024/01/17 11:51:34;;;;;;;9.10;5.30;;;1.50;99.90;;;;;;5038526;28;20776;-68
2024/01/17 11:54:04;;;;;;;9.17;5.10;;;1.60;99.90;;;;;;5038716;28;20504;-67
2024/01/17 11:56:33;;;;;;;7.50;4.70;;;1.50;99.90;;;;;;5038523;28;20450;-68
2024/01/17 11:59:06;;;;;;;18.47;6.83;;;1.40;99.90;;;;;;5038054;28;20474;-68
2024/01/17 12:01:46;;;;;;;8.90;5.47;;;1.50;99.90;;;;;;5038086;28;20433;-68
2024/01/17 12:04:14;;;;;;;14.20;7.70;;;1.50;99.90;;;;;;5038372;28;20463;-69
2024/01/17 12:06:42;;;;;;;11.43;5.20;;;1.50;99.90;;;;;;5036963;28;20413;-68
2024/01/17 12:09:17;;;;;;;9.73;5.03;;;1.50;99.90;;;;;;5037540;28;20448;-68
2024/01/17 12:11:46;;;;;;;19.80;10.10;;;1.50;99.90;;;;;;5038150;28;20467;-68
2024/01/17 12:14:14;;;;;;;12.20;6.40;;;1.50;99.90;;;;;;5037696;28;20497;-68
2024/01/17 12:16:41;;;;;;;9.77;5.87;;;1.60;99.90;;;;;;5037482;28;20478;-67
2024/01/17 12:19:12;;;;;;;8.33;5.20;;;1.70;99.90;;;;;;5037074;28;20493;-67
2024/01/17 12:21:41;;;;;;;7.87;5.07;;;1.80;99.90;;;;;;5037298;28;20432;-68
2024/01/17 12:24:11;;;;;;;12.33;5.90;;;1.90;99.90;;;;;;5037463;28;20472;-68
2024/01/17 12:26:38;;;;;;;12.50;6.13;;;1.90;99.90;;;;;;5037896;28;20497;-68
2024/01/17 12:29:11;;;;;;;11.53;7.27;;;2.10;99.90;;;;;;5037111;28;20536;-67
2024/01/17 12:31:41;;;;;;;11.90;6.83;;;2.20;99.90;;;;;;5036940;28;20438;-68
2024/01/17 12:34:11;;;;;;;7.07;5.60;;;2.40;99.90;;;;;;5036958;28;20468;-68
2024/01/17 12:36:38;;;;;;;8.50;4.37;;;2.40;99.90;;;;;;5037190;28;20457;-67
2024/01/17 12:39:12;;;;;;;7.60;5.10;;;2.30;99.90;;;;;;5037582;28;20445;-67
2024/01/17 12:41:42;;;;;;;11.20;5.90;;;2.10;99.90;;;;;;5037953;28;20469;-68
2024/01/17 12:44:21;;;;;;;10.13;6.23;;;2.00;99.90;;;;;;5037471;28;20448;-68
2024/01/17 12:46:48;;;;;;;18.70;5.90;;;1.90;99.90;;;;;;5037442;28;20421;-68
2024/01/17 12:49:15;;;;;;;13.30;5.00;;;1.70;99.90;;;;;;5037658;28;20415;-68